sensor_id;sensor_type;location;lat;lon;timestamp;temperature;humidity
82506;SHT30;72144;51.444;10.560;2024-02-26T00:02:16;3.35;77.15
82506;SHT30;72144;51.444;10.560;2024-02-26T00:04:42;3.32;77.16
82506;SHT30;72144;51.444;10.560;2024-02-26T00:07:08;3.29;77.16
82506;SHT30;72144;51.444;10.560;2024-02-26T00:09:33;3.26;77.08
82506;SHT30;72144;51.444;10.560;2024-02-26T00:12:02;3.25;77.11
82506;SHT30;72144;51.444;10.560;2024-02-26T00:14:29;3.23;77.25
82506;SHT30;72144;51.444;10.560;2024-02-26T00:16:54;3.22;77.19
82506;SHT30;72144;51.444;10.560;2024-02-26T00:19:20;3.18;77.19
82506;SHT30;72144;51.444;10.560;2024-02-26T00:21:45;3.19;77.20
82506;SHT30;72144;51.444;10.560;2024-02-26T00:24:10;3.19;77.21
82506;SHT30;72144;51.444;10.560;2024-02-26T00:26:36;3.18;77.39
82506;SHT30;72144;51.444;10.560;2024-02-26T00:29:01;3.15;77.33
82506;SHT30;72144;51.444;10.560;2024-02-26T00:31:27;3.15;77.27
82506;SHT30;72144;51.444;10.560;2024-02-26T00:33:52;3.15;77.31
82506;SHT30;72144;51.444;10.560;2024-02-26T00:36:17;3.11;77.33
82506;SHT30;72144;51.444;10.560;2024-02-26T00:38:44;3.09;77.27
82506;SHT30;72144;51.444;10.560;2024-02-26T00:41:11;3.08;77.27
82506;SHT30;72144;51.444;10.560;2024-02-26T00:43:37;3.09;77.28
82506;SHT30;72144;51.444;10.560;2024-02-26T00:46:04;3.07;77.34
82506;SHT30;72144;51.444;10.560;2024-02-26T00:48:30;3.05;77.33
82506;SHT30;72144;51.444;10.560;2024-02-26T00:50:55;3.04;77.38
82506;SHT30;72144;51.444;10.560;2024-02-26T00:53:20;3.01;77.40
82506;SHT30;72144;51.444;10.560;2024-02-26T00:55:46;3.01;77.43
82506;SHT30;72144;51.444;10.560;2024-02-26T00:58:11;2.98;77.33
82506;SHT30;72144;51.444;10.560;2024-02-26T01:00:37;2.97;77.28
82506;SHT30;72144;51.444;10.560;2024-02-26T01:03:02;2.94;77.28
82506;SHT30;72144;51.444;10.560;2024-02-26T01:05:29;2.93;77.38
82506;SHT30;72144;51.444;10.560;2024-02-26T01:07:54;2.91;77.38
82506;SHT30;72144;51.444;10.560;2024-02-26T01:10:19;2.91;77.46
82506;SHT30;72144;51.444;10.560;2024-02-26T01:12:45;2.88;77.37
82506;SHT30;72144;51.444;10.560;2024-02-26T01:15:10;2.86;77.33
82506;SHT30;72144;51.444;10.560;2024-02-26T01:17:35;2.86;77.27
82506;SHT30;72144;51.444;10.560;2024-02-26T01:20:01;2.83;77.25
82506;SHT30;72144;51.444;10.560;2024-02-26T01:22:26;2.79;77.23
82506;SHT30;72144;51.444;10.560;2024-02-26T01:24:52;2.79;77.33
82506;SHT30;72144;51.444;10.560;2024-02-26T01:27:17;2.79;77.29
82506;SHT30;72144;51.444;10.560;2024-02-26T01:29:42;2.79;77.26
82506;SHT30;72144;51.444;10.560;2024-02-26T01:32:08;2.76;77.32
82506;SHT30;72144;51.444;10.560;2024-02-26T01:34:33;2.72;77.43
82506;SHT30;72144;51.444;10.560;2024-02-26T01:36:59;2.72;77.34
82506;SHT30;72144;51.444;10.560;2024-02-26T01:39:24;2.70;77.33
82506;SHT30;72144;51.444;10.560;2024-02-26T01:41:49;2.67;77.33
82506;SHT30;72144;51.444;10.560;2024-02-26T01:44:15;2.67;77.40
82506;SHT30;72144;51.444;10.560;2024-02-26T01:46:40;2.67;77.44
82506;SHT30;72144;51.444;10.560;2024-02-26T01:49:06;2.64;77.50
82506;SHT30;72144;51.444;10.560;2024-02-26T01:51:34;2.63;77.47
82506;SHT30;72144;51.444;10.560;2024-02-26T01:54:02;2.62;77.38
82506;SHT30;72144;51.444;10.560;2024-02-26T01:56:28;2.60;77.52
82506;SHT30;72144;51.444;10.560;2024-02-26T01:58:57;2.62;77.49
82506;SHT30;72144;51.444;10.560;2024-02-26T02:01:25;2.59;77.44
82506;SHT30;72144;51.444;10.560;2024-02-26T02:03:51;2.59;77.52
82506;SHT30;72144;51.444;10.560;2024-02-26T02:06:17;2.54;77.53
82506;SHT30;72144;51.444;10.560;2024-02-26T02:08:44;2.56;77.60
82506;SHT30;72144;51.444;10.560;2024-02-26T02:11:09;2.54;77.64
82506;SHT30;72144;51.444;10.560;2024-02-26T02:13:37;2.56;77.61
82506;SHT30;72144;51.444;10.560;2024-02-26T02:16:03;2.54;77.58
82506;SHT30;72144;51.444;10.560;2024-02-26T02:18:28;2.54;77.58
82506;SHT30;72144;51.444;10.560;2024-02-26T02:20:54;2.53;77.68
82506;SHT30;72144;51.444;10.560;2024-02-26T02:23:21;2.52;77.66
82506;SHT30;72144;51.444;10.560;2024-02-26T02:25:46;2.50;77.66
82506;SHT30;72144;51.444;10.560;2024-02-26T02:28:12;2.50;77.70
82506;SHT30;72144;51.444;10.560;2024-02-26T02:30:37;2.52;77.69
82506;SHT30;72144;51.444;10.560;2024-02-26T02:33:03;2.49;77.73
82506;SHT30;72144;51.444;10.560;2024-02-26T02:35:29;2.52;77.70
82506;SHT30;72144;51.444;10.560;2024-02-26T02:37:56;2.50;77.78
82506;SHT30;72144;51.444;10.560;2024-02-26T02:40:22;2.50;77.75
82506;SHT30;72144;51.444;10.560;2024-02-26T02:42:47;2.50;77.74
82506;SHT30;72144;51.444;10.560;2024-02-26T02:45:13;2.49;77.73
82506;SHT30;72144;51.444;10.560;2024-02-26T02:47:38;2.48;77.76
82506;SHT30;72144;51.444;10.560;2024-02-26T02:50:04;2.48;77.70
82506;SHT30;72144;51.444;10.560;2024-02-26T02:52:30;2.46;77.79
82506;SHT30;72144;51.444;10.560;2024-02-26T02:54:55;2.45;77.75
82506;SHT30;72144;51.444;10.560;2024-02-26T02:57:21;2.46;77.81
82506;SHT30;72144;51.444;10.560;2024-02-26T02:59:46;2.42;77.88
82506;SHT30;72144;51.444;10.560;2024-02-26T03:02:11;2.43;77.89
82506;SHT30;72144;51.444;10.560;2024-02-26T03:04:37;2.42;77.93
82506;SHT30;72144;51.444;10.560;2024-02-26T03:07:02;2.41;77.92
82506;SHT30;72144;51.444;10.560;2024-02-26T03:09:28;2.41;77.98
82506;SHT30;72144;51.444;10.560;2024-02-26T03:11:53;2.41;77.96
82506;SHT30;72144;51.444;10.560;2024-02-26T03:14:19;2.38;77.91
82506;SHT30;72144;51.444;10.560;2024-02-26T03:16:44;2.36;77.88
82506;SHT30;72144;51.444;10.560;2024-02-26T03:19:10;2.36;77.88
82506;SHT30;72144;51.444;10.560;2024-02-26T03:21:35;2.35;77.92
82506;SHT30;72144;51.444;10.560;2024-02-26T03:24:01;2.35;77.83
82506;SHT30;72144;51.444;10.560;2024-02-26T03:26:26;2.35;77.87
82506;SHT30;72144;51.444;10.560;2024-02-26T03:28:51;2.31;77.87
82506;SHT30;72144;51.444;10.560;2024-02-26T03:31:17;2.29;77.97
82506;SHT30;72144;51.444;10.560;2024-02-26T03:33:42;2.32;78.02
82506;SHT30;72144;51.444;10.560;2024-02-26T03:36:07;2.29;78.09
82506;SHT30;72144;51.444;10.560;2024-02-26T03:38:33;2.29;78.13
82506;SHT30;72144;51.444;10.560;2024-02-26T03:40:59;2.32;78.15
82506;SHT30;72144;51.444;10.560;2024-02-26T03:43:24;2.29;78.14
82506;SHT30;72144;51.444;10.560;2024-02-26T03:45:49;2.31;78.15
82506;SHT30;72144;51.444;10.560;2024-02-26T03:48:15;2.31;78.13
82506;SHT30;72144;51.444;10.560;2024-02-26T03:50:40;2.31;78.25
82506;SHT30;72144;51.444;10.560;2024-02-26T03:53:06;2.32;78.25
82506;SHT30;72144;51.444;10.560;2024-02-26T03:55:34;2.31;78.28
82506;SHT30;72144;51.444;10.560;2024-02-26T03:57:59;2.34;78.30
82506;SHT30;72144;51.444;10.560;2024-02-26T04:00:25;2.35;78.29
82506;SHT30;72144;51.444;10.560;2024-02-26T04:02:51;2.32;78.38
82506;SHT30;72144;51.444;10.560;2024-02-26T04:05:16;2.36;78.39
82506;SHT30;72144;51.444;10.560;2024-02-26T04:07:42;2.36;78.47
82506;SHT30;72144;51.444;10.560;2024-02-26T04:10:11;2.34;78.44
82506;SHT30;72144;51.444;10.560;2024-02-26T04:12:41;2.35;78.40
82506;SHT30;72144;51.444;10.560;2024-02-26T04:15:10;2.36;78.55
82506;SHT30;72144;51.444;10.560;2024-02-26T04:17:36;2.36;78.50
82506;SHT30;72144;51.444;10.560;2024-02-26T04:20:03;2.36;78.62
82506;SHT30;72144;51.444;10.560;2024-02-26T04:22:28;2.38;78.69
82506;SHT30;72144;51.444;10.560;2024-02-26T04:24:54;2.39;78.72
82506;SHT30;72144;51.444;10.560;2024-02-26T04:27:19;2.41;78.73
82506;SHT30;72144;51.444;10.560;2024-02-26T04:29:44;2.41;78.76
82506;SHT30;72144;51.444;10.560;2024-02-26T04:32:10;2.39;78.80
82506;SHT30;72144;51.444;10.560;2024-02-26T04:34:35;2.41;78.84
82506;SHT30;72144;51.444;10.560;2024-02-26T04:37:01;2.43;78.85
82506;SHT30;72144;51.444;10.560;2024-02-26T04:39:26;2.43;78.87
82506;SHT30;72144;51.444;10.560;2024-02-26T04:41:51;2.41;78.94
82506;SHT30;72144;51.444;10.560;2024-02-26T04:44:17;2.43;78.97
82506;SHT30;72144;51.444;10.560;2024-02-26T04:46:42;2.43;79.00
82506;SHT30;72144;51.444;10.560;2024-02-26T04:49:09;2.43;79.00
82506;SHT30;72144;51.444;10.560;2024-02-26T04:51:34;2.45;79.06
82506;SHT30;72144;51.444;10.560;2024-02-26T04:54:00;2.45;79.01
82506;SHT30;72144;51.444;10.560;2024-02-26T04:56:25;2.45;79.10
82506;SHT30;72144;51.444;10.560;2024-02-26T04:58:50;2.43;79.10
82506;SHT30;72144;51.444;10.560;2024-02-26T05:01:16;2.48;79.19
82506;SHT30;72144;51.444;10.560;2024-02-26T05:03:42;2.46;79.20
82506;SHT30;72144;51.444;10.560;2024-02-26T05:06:08;2.46;79.19
82506;SHT30;72144;51.444;10.560;2024-02-26T05:08:34;2.45;79.22
82506;SHT30;72144;51.444;10.560;2024-02-26T05:11:01;2.49;79.24
82506;SHT30;72144;51.444;10.560;2024-02-26T05:13:28;2.48;79.22
82506;SHT30;72144;51.444;10.560;2024-02-26T05:15:53;2.48;79.29
82506;SHT30;72144;51.444;10.560;2024-02-26T05:18:19;2.52;79.37
82506;SHT30;72144;51.444;10.560;2024-02-26T05:20:44;2.49;79.39
82506;SHT30;72144;51.444;10.560;2024-02-26T05:23:09;2.50;79.44
82506;SHT30;72144;51.444;10.560;2024-02-26T05:25:35;2.49;79.44
82506;SHT30;72144;51.444;10.560;2024-02-26T05:28:00;2.50;79.48
82506;SHT30;72144;51.444;10.560;2024-02-26T05:30:26;2.52;79.47
82506;SHT30;72144;51.444;10.560;2024-02-26T05:32:53;2.52;79.44
82506;SHT30;72144;51.444;10.560;2024-02-26T05:35:18;2.52;79.48
82506;SHT30;72144;51.444;10.560;2024-02-26T05:37:44;2.54;79.52
82506;SHT30;72144;51.444;10.560;2024-02-26T05:40:10;2.54;79.58
82506;SHT30;72144;51.444;10.560;2024-02-26T05:42:35;2.54;79.59
82506;SHT30;72144;51.444;10.560;2024-02-26T05:45:01;2.54;79.63
82506;SHT30;72144;51.444;10.560;2024-02-26T05:47:33;2.56;79.62
82506;SHT30;72144;51.444;10.560;2024-02-26T05:49:59;2.56;79.68
82506;SHT30;72144;51.444;10.560;2024-02-26T05:52:26;2.56;79.67
82506;SHT30;72144;51.444;10.560;2024-02-26T05:54:51;2.57;79.69
82506;SHT30;72144;51.444;10.560;2024-02-26T05:57:17;2.57;79.68
82506;SHT30;72144;51.444;10.560;2024-02-26T05:59:43;2.56;79.67
82506;SHT30;72144;51.444;10.560;2024-02-26T06:02:09;2.57;79.63
82506;SHT30;72144;51.444;10.560;2024-02-26T06:04:34;2.59;79.72
82506;SHT30;72144;51.444;10.560;2024-02-26T06:07:00;2.57;79.76
82506;SHT30;72144;51.444;10.560;2024-02-26T06:09:25;2.60;79.75
82506;SHT30;72144;51.444;10.560;2024-02-26T06:11:50;2.60;79.82
82506;SHT30;72144;51.444;10.560;2024-02-26T06:14:16;2.63;79.84
82506;SHT30;72144;51.444;10.560;2024-02-26T06:16:44;2.62;79.88
82506;SHT30;72144;51.444;10.560;2024-02-26T06:19:09;2.60;79.90
82506;SHT30;72144;51.444;10.560;2024-02-26T06:21:35;2.62;79.93
82506;SHT30;72144;51.444;10.560;2024-02-26T06:24:01;2.60;80.08
82506;SHT30;72144;51.444;10.560;2024-02-26T06:26:26;2.62;80.11
82506;SHT30;72144;51.444;10.560;2024-02-26T06:28:54;2.63;80.15
82506;SHT30;72144;51.444;10.560;2024-02-26T06:31:20;2.64;80.29
82506;SHT30;72144;51.444;10.560;2024-02-26T06:33:47;2.64;80.35
82506;SHT30;72144;51.444;10.560;2024-02-26T06:36:12;2.66;80.33
82506;SHT30;72144;51.444;10.560;2024-02-26T06:38:38;2.69;80.32
82506;SHT30;72144;51.444;10.560;2024-02-26T06:41:03;2.70;80.21
82506;SHT30;72144;51.444;10.560;2024-02-26T06:43:29;2.69;80.28
82506;SHT30;72144;51.444;10.560;2024-02-26T06:45:54;2.69;80.25
82506;SHT30;72144;51.444;10.560;2024-02-26T06:48:19;2.70;80.21
82506;SHT30;72144;51.444;10.560;2024-02-26T06:50:45;2.69;80.24
82506;SHT30;72144;51.444;10.560;2024-02-26T06:53:10;2.70;80.31
82506;SHT30;72144;51.444;10.560;2024-02-26T06:55:36;2.73;80.30
82506;SHT30;72144;51.444;10.560;2024-02-26T06:58:05;2.72;80.29
82506;SHT30;72144;51.444;10.560;2024-02-26T07:00:30;2.73;80.28
82506;SHT30;72144;51.444;10.560;2024-02-26T07:02:56;2.76;80.31
82506;SHT30;72144;51.444;10.560;2024-02-26T07:05:21;2.72;80.31
82506;SHT30;72144;51.444;10.560;2024-02-26T07:07:46;2.76;80.33
82506;SHT30;72144;51.444;10.560;2024-02-26T07:10:12;2.76;80.35
82506;SHT30;72144;51.444;10.560;2024-02-26T07:12:38;2.79;80.38
82506;SHT30;72144;51.444;10.560;2024-02-26T07:15:04;2.80;80.50
82506;SHT30;72144;51.444;10.560;2024-02-26T07:17:30;2.81;80.70
82506;SHT30;72144;51.444;10.560;2024-02-26T07:19:55;2.81;80.77
82506;SHT30;72144;51.444;10.560;2024-02-26T07:22:21;2.83;80.80
82506;SHT30;72144;51.444;10.560;2024-02-26T07:24:46;2.84;80.80
82506;SHT30;72144;51.444;10.560;2024-02-26T07:27:12;2.87;80.86
82506;SHT30;72144;51.444;10.560;2024-02-26T07:29:37;2.87;80.89
82506;SHT30;72144;51.444;10.560;2024-02-26T07:32:03;2.90;80.93
82506;SHT30;72144;51.444;10.560;2024-02-26T07:34:28;2.91;81.01
82506;SHT30;72144;51.444;10.560;2024-02-26T07:36:55;2.93;81.05
82506;SHT30;72144;51.444;10.560;2024-02-26T07:39:21;2.94;81.14
82506;SHT30;72144;51.444;10.560;2024-02-26T07:41:47;2.98;81.18
82506;SHT30;72144;51.444;10.560;2024-02-26T07:44:15;3.00;81.30
82506;SHT30;72144;51.444;10.560;2024-02-26T07:46:40;3.01;81.32
82506;SHT30;72144;51.444;10.560;2024-02-26T07:49:06;3.04;81.53
82506;SHT30;72144;51.444;10.560;2024-02-26T07:51:31;3.08;81.67
82506;SHT30;72144;51.444;10.560;2024-02-26T07:53:56;3.11;81.73
82506;SHT30;72144;51.444;10.560;2024-02-26T07:56:22;3.12;81.86
82506;SHT30;72144;51.444;10.560;2024-02-26T07:58:47;3.16;82.01
82506;SHT30;72144;51.444;10.560;2024-02-26T08:01:13;3.18;82.09
82506;SHT30;72144;51.444;10.560;2024-02-26T08:03:39;3.22;82.05
82506;SHT30;72144;51.444;10.560;2024-02-26T08:06:05;3.23;81.94
82506;SHT30;72144;51.444;10.560;2024-02-26T08:08:30;3.28;81.90
82506;SHT30;72144;51.444;10.560;2024-02-26T08:10:56;3.28;81.90
82506;SHT30;72144;51.444;10.560;2024-02-26T08:13:21;3.32;81.94
82506;SHT30;72144;51.444;10.560;2024-02-26T08:15:46;3.35;81.90
82506;SHT30;72144;51.444;10.560;2024-02-26T08:18:12;3.38;81.87
82506;SHT30;72144;51.444;10.560;2024-02-26T08:20:37;3.40;81.69
82506;SHT30;72144;51.444;10.560;2024-02-26T08:23:03;3.42;81.57
82506;SHT30;72144;51.444;10.560;2024-02-26T08:25:29;3.49;81.57
82506;SHT30;72144;51.444;10.560;2024-02-26T08:27:55;3.48;81.62
82506;SHT30;72144;51.444;10.560;2024-02-26T08:30:20;3.55;81.58
82506;SHT30;72144;51.444;10.560;2024-02-26T08:32:47;3.55;81.53
82506;SHT30;72144;51.444;10.560;2024-02-26T08:35:13;3.59;81.48
82506;SHT30;72144;51.444;10.560;2024-02-26T08:37:38;3.62;81.55
82506;SHT30;72144;51.444;10.560;2024-02-26T08:40:05;3.63;81.46
82506;SHT30;72144;51.444;10.560;2024-02-26T08:42:30;3.66;81.43
82506;SHT30;72144;51.444;10.560;2024-02-26T08:44:56;3.67;81.42
82506;SHT30;72144;51.444;10.560;2024-02-26T08:47:21;3.71;81.38
82506;SHT30;72144;51.444;10.560;2024-02-26T08:49:46;3.73;81.33
82506;SHT30;72144;51.444;10.560;2024-02-26T08:52:12;3.74;81.30
82506;SHT30;72144;51.444;10.560;2024-02-26T08:54:37;3.76;81.26
82506;SHT30;72144;51.444;10.560;2024-02-26T08:57:03;3.83;81.25
82506;SHT30;72144;51.444;10.560;2024-02-26T08:59:29;3.85;81.26
82506;SHT30;72144;51.444;10.560;2024-02-26T09:01:54;3.90;81.24
82506;SHT30;72144;51.444;10.560;2024-02-26T09:04:20;3.90;81.17
82506;SHT30;72144;51.444;10.560;2024-02-26T09:06:46;3.94;81.18
82506;SHT30;72144;51.444;10.560;2024-02-26T09:09:11;3.98;81.17
82506;SHT30;72144;51.444;10.560;2024-02-26T09:11:36;3.99;81.18
82506;SHT30;72144;51.444;10.560;2024-02-26T09:14:02;4.04;81.12
82506;SHT30;72144;51.444;10.560;2024-02-26T09:16:29;4.08;81.14
82506;SHT30;72144;51.444;10.560;2024-02-26T09:18:54;4.11;81.11
82506;SHT30;72144;51.444;10.560;2024-02-26T09:21:20;4.12;81.13
82506;SHT30;72144;51.444;10.560;2024-02-26T09:23:49;4.16;81.10
82506;SHT30;72144;51.444;10.560;2024-02-26T09:26:15;4.19;81.09
82506;SHT30;72144;51.444;10.560;2024-02-26T09:28:40;4.23;81.09
82506;SHT30;72144;51.444;10.560;2024-02-26T09:31:05;4.25;81.08
82506;SHT30;72144;51.444;10.560;2024-02-26T09:33:32;4.30;81.06
82506;SHT30;72144;51.444;10.560;2024-02-26T09:35:57;4.32;81.02
82506;SHT30;72144;51.444;10.560;2024-02-26T09:38:23;4.33;81.02
82506;SHT30;72144;51.444;10.560;2024-02-26T09:40:49;4.38;80.97
82506;SHT30;72144;51.444;10.560;2024-02-26T09:43:17;4.40;80.95
82506;SHT30;72144;51.444;10.560;2024-02-26T09:45:46;4.43;80.96
82506;SHT30;72144;51.444;10.560;2024-02-26T09:48:12;4.50;80.94
82506;SHT30;72144;51.444;10.560;2024-02-26T09:50:40;4.52;80.95
82506;SHT30;72144;51.444;10.560;2024-02-26T09:53:08;4.56;80.92
82506;SHT30;72144;51.444;10.560;2024-02-26T09:55:35;4.58;80.93
82506;SHT30;72144;51.444;10.560;2024-02-26T09:58:01;4.63;80.92
82506;SHT30;72144;51.444;10.560;2024-02-26T10:00:29;4.67;80.96
82506;SHT30;72144;51.444;10.560;2024-02-26T10:02:58;4.70;80.92
82506;SHT30;72144;51.444;10.560;2024-02-26T10:05:26;4.73;80.90
82506;SHT30;72144;51.444;10.560;2024-02-26T10:07:52;4.77;80.92
82506;SHT30;72144;51.444;10.560;2024-02-26T10:10:18;4.81;80.90
82506;SHT30;72144;51.444;10.560;2024-02-26T10:12:44;4.85;80.89
82506;SHT30;72144;51.444;10.560;2024-02-26T10:15:09;4.89;80.87
82506;SHT30;72144;51.444;10.560;2024-02-26T10:17:35;4.96;80.83
82506;SHT30;72144;51.444;10.560;2024-02-26T10:20:17;4.98;80.93
82506;SHT30;72144;51.444;10.560;2024-02-26T10:22:44;5.02;80.77
82506;SHT30;72144;51.444;10.560;2024-02-26T10:25:10;5.08;80.72
82506;SHT30;72144;51.444;10.560;2024-02-26T10:27:35;5.12;80.75
82506;SHT30;72144;51.444;10.560;2024-02-26T10:30:12;5.19;80.74
82506;SHT30;72144;51.444;10.560;2024-02-26T10:32:40;5.22;80.68
82506;SHT30;72144;51.444;10.560;2024-02-26T10:35:08;5.26;80.66
82506;SHT30;72144;51.444;10.560;2024-02-26T10:37:34;5.30;80.59
82506;SHT30;72144;51.444;10.560;2024-02-26T10:39:59;5.36;80.60
82506;SHT30;72144;51.444;10.560;2024-02-26T10:42:26;5.39;80.59
82506;SHT30;72144;51.444;10.560;2024-02-26T10:44:51;5.46;80.59
82506;SHT30;72144;51.444;10.560;2024-02-26T10:47:16;5.47;80.57
82506;SHT30;72144;51.444;10.560;2024-02-26T10:49:46;5.55;80.52
82506;SHT30;72144;51.444;10.560;2024-02-26T10:52:14;5.61;80.51
82506;SHT30;72144;51.444;10.560;2024-02-26T10:54:41;5.63;80.46
82506;SHT30;72144;51.444;10.560;2024-02-26T10:57:09;5.67;80.48
82506;SHT30;72144;51.444;10.560;2024-02-26T10:59:36;5.72;80.45
82506;SHT30;72144;51.444;10.560;2024-02-26T11:02:03;5.78;80.43
82506;SHT30;72144;51.444;10.560;2024-02-26T11:04:29;5.84;80.43
82506;SHT30;72144;51.444;10.560;2024-02-26T11:06:57;5.88;80.38
82506;SHT30;72144;51.444;10.560;2024-02-26T11:09:22;5.94;80.38
82506;SHT30;72144;51.444;10.560;2024-02-26T11:11:49;5.99;80.35
82506;SHT30;72144;51.444;10.560;2024-02-26T11:14:15;6.05;80.30
82506;SHT30;72144;51.444;10.560;2024-02-26T11:16:42;6.10;80.27
82506;SHT30;72144;51.444;10.560;2024-02-26T11:19:09;6.16;80.24
82506;SHT30;72144;51.444;10.560;2024-02-26T11:21:36;6.17;80.21
82506;SHT30;72144;51.444;10.560;2024-02-26T11:24:07;6.25;80.22
82506;SHT30;72144;51.444;10.560;2024-02-26T11:26:36;6.32;80.18
82506;SHT30;72144;51.444;10.560;2024-02-26T11:29:04;6.38;80.10
82506;SHT30;72144;51.444;10.560;2024-02-26T11:31:32;6.41;80.11
82506;SHT30;72144;51.444;10.560;2024-02-26T11:33:58;6.48;80.07
82506;SHT30;72144;51.444;10.560;2024-02-26T11:36:24;6.51;80.06
82506;SHT30;72144;51.444;10.560;2024-02-26T11:38:49;6.55;80.04
82506;SHT30;72144;51.444;10.560;2024-02-26T11:41:17;6.63;80.00
82506;SHT30;72144;51.444;10.560;2024-02-26T11:43:53;6.67;80.03
82506;SHT30;72144;51.444;10.560;2024-02-26T11:46:42;6.70;80.03
82506;SHT30;72144;51.444;10.560;2024-02-26T11:49:29;6.74;80.04
82506;SHT30;72144;51.444;10.560;2024-02-26T11:51:56;6.79;79.91
82506;SHT30;72144;51.444;10.560;2024-02-26T11:54:47;6.88;79.94
82506;SHT30;72144;51.444;10.560;2024-02-26T11:59:48;6.96;79.84
82506;SHT30;72144;51.444;10.560;2024-02-26T12:02:40;7.05;79.88
82506;SHT30;72144;51.444;10.560;2024-02-26T12:05:17;7.05;79.86
82506;SHT30;72144;51.444;10.560;2024-02-26T12:07:50;7.09;79.86
82506;SHT30;72144;51.444;10.560;2024-02-26T12:10:25;7.15;79.82
82506;SHT30;72144;51.444;10.560;2024-02-26T12:12:58;7.22;79.75
82506;SHT30;72144;51.444;10.560;2024-02-26T12:15:24;7.23;79.73
82506;SHT30;72144;51.444;10.560;2024-02-26T12:17:52;7.31;79.73
82506;SHT30;72144;51.444;10.560;2024-02-26T12:20:18;7.34;79.66
82506;SHT30;72144;51.444;10.560;2024-02-26T12:22:45;7.40;79.60
82506;SHT30;72144;51.444;10.560;2024-02-26T12:25:14;7.46;79.59
82506;SHT30;72144;51.444;10.560;2024-02-26T12:27:39;7.50;79.59
82506;SHT30;72144;51.444;10.560;2024-02-26T12:30:05;7.55;79.66
82506;SHT30;72144;51.444;10.560;2024-02-26T12:32:31;7.58;79.62
82506;SHT30;72144;51.444;10.560;2024-02-26T12:34:58;7.65;79.57
82506;SHT30;72144;51.444;10.560;2024-02-26T12:37:23;7.68;79.53
82506;SHT30;72144;51.444;10.560;2024-02-26T12:39:49;7.72;79.52
82506;SHT30;72144;51.444;10.560;2024-02-26T12:42:15;7.75;79.46
82506;SHT30;72144;51.444;10.560;2024-02-26T12:44:40;7.82;79.41
82506;SHT30;72144;51.444;10.560;2024-02-26T12:47:06;7.83;79.39
82506;SHT30;72144;51.444;10.560;2024-02-26T12:49:31;7.87;79.42
82506;SHT30;72144;51.444;10.560;2024-02-26T12:51:57;7.89;79.44
82506;SHT30;72144;51.444;10.560;2024-02-26T12:54:30;7.93;79.49
82506;SHT30;72144;51.444;10.560;2024-02-26T12:56:57;7.95;79.48
82506;SHT30;72144;51.444;10.560;2024-02-26T12:59:23;7.99;79.46
82506;SHT30;72144;51.444;10.560;2024-02-26T13:01:49;8.00;79.44
82506;SHT30;72144;51.444;10.560;2024-02-26T13:04:14;8.03;79.47
82506;SHT30;72144;51.444;10.560;2024-02-26T13:06:40;8.07;79.49
82506;SHT30;72144;51.444;10.560;2024-02-26T13:09:06;8.10;79.40
82506;SHT30;72144;51.444;10.560;2024-02-26T13:11:31;8.12;79.34
82506;SHT30;72144;51.444;10.560;2024-02-26T13:13:58;8.14;79.31
82506;SHT30;72144;51.444;10.560;2024-02-26T13:16:24;8.17;79.35
82506;SHT30;72144;51.444;10.560;2024-02-26T13:18:50;8.21;79.31
82506;SHT30;72144;51.444;10.560;2024-02-26T13:21:18;8.24;79.33
82506;SHT30;72144;51.444;10.560;2024-02-26T13:23:48;8.29;79.32
82506;SHT30;72144;51.444;10.560;2024-02-26T13:26:14;8.30;79.39
82506;SHT30;72144;51.444;10.560;2024-02-26T13:28:40;8.36;79.31
82506;SHT30;72144;51.444;10.560;2024-02-26T13:31:05;8.38;79.31
82506;SHT30;72144;51.444;10.560;2024-02-26T13:33:33;8.40;79.27
82506;SHT30;72144;51.444;10.560;2024-02-26T13:35:59;8.45;79.30
82506;SHT30;72144;51.444;10.560;2024-02-26T13:38:26;8.49;79.31
82506;SHT30;72144;51.444;10.560;2024-02-26T13:40:52;8.54;79.28
82506;SHT30;72144;51.444;10.560;2024-02-26T13:43:18;8.55;79.28
82506;SHT30;72144;51.444;10.560;2024-02-26T13:45:44;8.61;79.20
82506;SHT30;72144;51.444;10.560;2024-02-26T13:48:11;8.64;79.21
82506;SHT30;72144;51.444;10.560;2024-02-26T13:50:40;8.68;79.22
82506;SHT30;72144;51.444;10.560;2024-02-26T13:53:05;8.69;79.22
82506;SHT30;72144;51.444;10.560;2024-02-26T13:55:31;8.72;79.26
82506;SHT30;72144;51.444;10.560;2024-02-26T13:57:58;8.75;79.22
82506;SHT30;72144;51.444;10.560;2024-02-26T14:00:27;8.79;79.33
82506;SHT30;72144;51.444;10.560;2024-02-26T14:02:53;8.82;79.27
82506;SHT30;72144;51.444;10.560;2024-02-26T14:05:18;8.85;79.32
82506;SHT30;72144;51.444;10.560;2024-02-26T14:07:44;8.89;79.19
82506;SHT30;72144;51.444;10.560;2024-02-26T14:10:12;8.92;79.20
82506;SHT30;72144;51.444;10.560;2024-02-26T14:12:38;8.92;79.31
82506;SHT30;72144;51.444;10.560;2024-02-26T14:15:05;8.94;79.32
82506;SHT30;72144;51.444;10.560;2024-02-26T14:17:31;9.00;79.22
82506;SHT30;72144;51.444;10.560;2024-02-26T14:19:56;9.00;79.15
82506;SHT30;72144;51.444;10.560;2024-02-26T14:22:21;9.03;79.14
82506;SHT30;72144;51.444;10.560;2024-02-26T14:24:47;9.07;79.14
82506;SHT30;72144;51.444;10.560;2024-02-26T14:27:13;9.10;79.18
82506;SHT30;72144;51.444;10.560;2024-02-26T14:29:43;9.10;79.15
82506;SHT30;72144;51.444;10.560;2024-02-26T14:32:11;9.14;79.00
82506;SHT30;72144;51.444;10.560;2024-02-26T14:34:37;9.17;78.97
82506;SHT30;72144;51.444;10.560;2024-02-26T14:37:02;9.16;78.99
82506;SHT30;72144;51.444;10.560;2024-02-26T14:39:29;9.19;79.10
82506;SHT30;72144;51.444;10.560;2024-02-26T14:41:55;9.21;79.05
82506;SHT30;72144;51.444;10.560;2024-02-26T14:44:20;9.23;78.98
82506;SHT30;72144;51.444;10.560;2024-02-26T14:46:46;9.26;78.99
82506;SHT30;72144;51.444;10.560;2024-02-26T14:49:12;9.28;78.98
82506;SHT30;72144;51.444;10.560;2024-02-26T14:54:03;9.28;79.00
82506;SHT30;72144;51.444;10.560;2024-02-26T14:56:28;9.31;78.93
82506;SHT30;72144;51.444;10.560;2024-02-26T14:58:54;9.31;78.94
82506;SHT30;72144;51.444;10.560;2024-02-26T15:01:19;9.34;78.95
82506;SHT30;72144;51.444;10.560;2024-02-26T15:03:44;9.35;78.92
82506;SHT30;72144;51.444;10.560;2024-02-26T15:06:10;9.38;78.84
82506;SHT30;72144;51.444;10.560;2024-02-26T15:08:35;9.39;78.87
82506;SHT30;72144;51.444;10.560;2024-02-26T15:11:01;9.44;78.82
82506;SHT30;72144;51.444;10.560;2024-02-26T15:13:26;9.42;78.80
82506;SHT30;72144;51.444;10.560;2024-02-26T15:15:52;9.47;78.74
82506;SHT30;72144;51.444;10.560;2024-02-26T15:18:17;9.45;78.71
82506;SHT30;72144;51.444;10.560;2024-02-26T15:20:44;9.47;78.68
82506;SHT30;72144;51.444;10.560;2024-02-26T15:23:11;9.49;78.70
82506;SHT30;72144;51.444;10.560;2024-02-26T15:25:37;9.47;78.72
82506;SHT30;72144;51.444;10.560;2024-02-26T15:28:03;9.49;78.65
82506;SHT30;72144;51.444;10.560;2024-02-26T15:30:28;9.49;78.67